createdAt,value
2019-04-21T00:00:13.805Z,35.6
2019-04-21T00:01:25.996Z,35.6
2019-04-21T00:02:38.191Z,35.6
2019-04-21T00:03:50.394Z,35.6
2019-04-21T00:05:02.585Z,35.6
2019-04-21T00:06:14.779Z,35.6
2019-04-21T00:07:26.974Z,35.6
2019-04-21T00:08:39.169Z,35.6
2019-04-21T00:09:51.372Z,35.6
2019-04-21T00:11:03.562Z,35.6
2019-04-21T00:12:15.759Z,35.6
2019-04-21T00:14:40.144Z,35.6
2019-04-21T00:15:52.334Z,35.6
2019-04-21T00:17:04.540Z,35.7
2019-04-21T00:18:16.728Z,35.6
2019-04-21T00:19:28.092Z,35.6
2019-04-21T00:20:41.126Z,35.6
2019-04-21T00:21:53.000Z,35.6
2019-04-21T00:23:05.535Z,35.6
2019-04-21T00:24:17.709Z,35.6
2019-04-21T00:25:29.900Z,35.6
2019-04-21T00:26:42.098Z,35.7
2019-04-21T00:27:54.293Z,35.6
2019-04-21T00:29:06.488Z,35.7
2019-04-21T00:30:18.679Z,35.6
2019-04-21T00:31:30.876Z,35.7
2019-04-21T00:32:43.071Z,35.6
2019-04-21T00:33:55.273Z,35.7
2019-04-21T00:35:07.459Z,35.7
2019-04-21T00:36:19.065Z,35.6
2019-04-21T00:37:31.858Z,35.6
2019-04-21T00:38:44.044Z,35.7
2019-04-21T00:39:56.257Z,35.6
2019-04-21T00:41:08.768Z,35.6
2019-04-21T00:42:20.636Z,35.7
2019-04-21T00:43:32.825Z,35.7
2019-04-21T00:44:45.002Z,35.7
2019-04-21T00:45:57.223Z,35.7
2019-04-21T00:47:09.414Z,35.6
2019-04-21T00:48:21.622Z,35.7
2019-04-21T00:49:33.802Z,35.7
2019-04-21T00:50:45.099Z,35.7
2019-04-21T00:51:58.226Z,35.7
2019-04-21T00:53:10.391Z,35.7
2019-04-21T00:54:22.586Z,35.7
2019-04-21T00:55:34.078Z,35.7
2019-04-21T00:56:46.981Z,35.7
2019-04-21T00:57:59.172Z,35.7
2019-04-21T00:59:11.358Z,35.7
2019-04-21T01:00:23.567Z,35.6
2019-04-21T01:02:47.959Z,35.7
2019-04-21T01:04:00.149Z,35.7
2019-04-21T01:05:12.340Z,35.7
2019-04-21T01:06:24.537Z,35.7
2019-04-21T01:07:36.729Z,35.7
2019-04-21T01:08:48.933Z,35.7
2019-04-21T01:10:01.119Z,35.7
2019-04-21T01:11:13.319Z,35.7
2019-04-21T01:12:25.539Z,35.7
2019-04-21T01:13:37.708Z,35.7
2019-04-21T01:14:49.899Z,35.6
2019-04-21T01:16:02.103Z,35.7
2019-04-21T01:17:14.291Z,35.7
2019-04-21T01:18:26.483Z,35.7
2019-04-21T01:19:38.688Z,35.7
2019-04-21T01:20:50.088Z,35.7
2019-04-21T01:22:03.109Z,35.7
2019-04-21T01:23:15.274Z,35.7
2019-04-21T01:24:27.464Z,35.7
2019-04-21T01:25:39.000Z,35.8
2019-04-21T01:26:51.854Z,35.8
2019-04-21T01:28:04.057Z,35.7
2019-04-21T01:29:16.245Z,35.7
2019-04-21T01:30:28.442Z,35.7
2019-04-21T01:31:40.641Z,35.7
2019-04-21T01:32:52.083Z,35.7
2019-04-21T01:34:05.000Z,35.7
2019-04-21T01:35:17.222Z,35.7
2019-04-21T01:36:29.422Z,35.7
2019-04-21T01:37:41.618Z,35.7
2019-04-21T01:38:53.806Z,35.7
2019-04-21T01:40:06.009Z,35.7
2019-04-21T01:41:18.202Z,35.7
2019-04-21T01:42:30.397Z,35.7
2019-04-21T01:44:54.798Z,35.7
2019-04-21T01:46:06.986Z,35.7
2019-04-21T01:47:19.174Z,35.7
2019-04-21T01:48:31.391Z,35.7
2019-04-21T01:49:43.569Z,35.7
2019-04-21T01:50:55.077Z,35.7
2019-04-21T01:52:07.962Z,35.8
2019-04-21T01:53:20.151Z,35.7
2019-04-21T01:54:32.341Z,35.7
2019-04-21T01:55:44.552Z,35.7
2019-04-21T01:56:56.743Z,35.7
2019-04-21T01:58:08.933Z,35.7
2019-04-21T01:59:21.121Z,35.8
2019-04-21T02:00:33.313Z,35.8
2019-04-21T02:01:45.509Z,35.7
2019-04-21T02:02:57.696Z,35.7
2019-04-21T02:04:09.894Z,35.8
2019-04-21T02:05:22.083Z,35.8
2019-04-21T02:06:34.277Z,35.8
2019-04-21T02:07:46.470Z,35.8
2019-04-21T02:08:58.670Z,35.7
2019-04-21T02:10:10.864Z,35.8
2019-04-21T02:11:23.052Z,35.8
2019-04-21T02:12:35.247Z,35.8
2019-04-21T02:13:47.451Z,35.8
2019-04-21T02:14:59.635Z,35.8
2019-04-21T02:16:11.822Z,35.8
2019-04-21T02:17:24.018Z,35.8
2019-04-21T02:18:36.213Z,35.8
2019-04-21T02:19:48.409Z,35.8
2019-04-21T02:21:00.059Z,35.8
2019-04-21T02:22:12.799Z,35.8
2019-04-21T02:23:25.052Z,35.8
2019-04-21T02:24:37.189Z,35.7
2019-04-21T02:25:49.379Z,35.8
2019-04-21T02:27:01.568Z,35.8
2019-04-21T02:28:13.767Z,35.8
2019-04-21T02:29:25.958Z,35.7
2019-04-21T02:30:38.157Z,35.8
2019-04-21T02:31:50.355Z,35.8
2019-04-21T02:33:02.539Z,35.7
2019-04-21T02:34:14.753Z,35.7
2019-04-21T02:35:26.930Z,35.8
2019-04-21T02:37:51.316Z,35.8
2019-04-21T02:39:03.502Z,35.8
2019-04-21T02:40:15.700Z,35.7
2019-04-21T02:41:27.895Z,35.8
2019-04-21T02:42:40.085Z,35.8
2019-04-21T02:43:52.282Z,35.8
2019-04-21T02:45:04.481Z,35.8
2019-04-21T02:46:16.666Z,35.8
2019-04-21T02:47:28.872Z,35.8
2019-04-21T02:48:41.056Z,35.8
2019-04-21T02:51:05.448Z,35.8
2019-04-21T02:52:17.632Z,35.7
2019-04-21T02:53:29.823Z,35.7
2019-04-21T02:54:42.028Z,35.8
2019-04-21T02:57:06.408Z,35.8
2019-04-21T02:58:18.604Z,35.8
2019-04-21T02:59:30.799Z,35.8
2019-04-21T03:00:42.988Z,35.7
2019-04-21T03:01:55.185Z,35.7
2019-04-21T03:04:19.568Z,35.7
2019-04-21T03:05:31.759Z,35.7
2019-04-21T03:06:43.095Z,35.7
2019-04-21T03:07:56.144Z,35.7
2019-04-21T03:09:08.342Z,35.7
2019-04-21T03:10:20.540Z,35.7
2019-04-21T03:11:32.074Z,35.7
2019-04-21T03:12:44.936Z,35.8
2019-04-21T03:13:57.116Z,35.8
2019-04-21T03:15:09.317Z,35.8
2019-04-21T03:16:21.509Z,35.8
2019-04-21T03:17:33.070Z,35.8
2019-04-21T03:18:45.089Z,35.8
2019-04-21T03:19:58.092Z,35.8
2019-04-21T03:21:10.283Z,35.8
2019-04-21T03:22:22.480Z,35.8
2019-04-21T03:23:34.666Z,35.8
2019-04-21T03:24:46.862Z,35.8
2019-04-21T03:25:59.054Z,35.8
2019-04-21T03:27:11.252Z,35.7
2019-04-21T03:28:23.446Z,35.8
2019-04-21T03:29:35.640Z,35.8
2019-04-21T03:30:47.082Z,35.8
2019-04-21T03:32:00.023Z,35.8
2019-04-21T03:33:12.221Z,35.7
2019-04-21T03:34:24.413Z,35.7
2019-04-21T03:35:36.612Z,35.7
2019-04-21T03:36:48.080Z,35.7
2019-04-21T03:38:00.990Z,35.7
2019-04-21T03:39:13.186Z,35.7
2019-04-21T03:40:25.378Z,35.7
2019-04-21T03:41:37.581Z,35.7
2019-04-21T03:42:49.776Z,35.7
2019-04-21T03:44:01.951Z,35.7
2019-04-21T03:46:26.347Z,35.7
2019-04-21T03:47:38.544Z,35.7
2019-04-21T03:48:50.737Z,35.7
2019-04-21T03:50:02.924Z,35.7
2019-04-21T03:52:27.318Z,35.7
2019-04-21T03:53:39.500Z,35.7
2019-04-21T03:54:51.704Z,35.5
2019-04-21T03:56:03.892Z,35.7
2019-04-21T03:57:16.088Z,35.5
2019-04-21T03:58:28.284Z,35.5
2019-04-21T03:59:40.479Z,35.7
2019-04-21T04:00:52.664Z,35.5
2019-04-21T04:03:17.050Z,35.5
2019-04-21T04:04:29.245Z,35.5
2019-04-21T04:05:41.440Z,35.5
2019-04-21T04:06:53.630Z,35.5
2019-04-21T04:08:05.828Z,35.5
2019-04-21T04:09:18.024Z,35.5
2019-04-21T04:10:30.021Z,35.5
2019-04-21T04:11:42.405Z,35.5
2019-04-21T04:12:54.607Z,35.5
2019-04-21T04:15:18.990Z,35.5
2019-04-21T04:16:31.179Z,35.5
2019-04-21T04:18:55.572Z,35.5
2019-04-21T04:20:07.000Z,35.5
2019-04-21T04:21:19.959Z,35.5
2019-04-21T04:22:32.169Z,35.5
2019-04-21T04:23:44.348Z,35.5
2019-04-21T04:24:56.540Z,35.5
2019-04-21T04:27:20.000Z,35.5
2019-04-21T04:28:33.121Z,35.5
2019-04-21T04:29:45.323Z,35.5
2019-04-21T04:30:57.509Z,35.5
2019-04-21T04:32:09.705Z,35.5
2019-04-21T04:33:21.897Z,35.5
2019-04-21T04:34:34.106Z,35.5
2019-04-21T04:35:46.289Z,35.5
2019-04-21T04:36:58.479Z,35.5
2019-04-21T04:39:22.870Z,35.5
2019-04-21T04:40:35.052Z,35.5
2019-04-21T04:41:47.024Z,35.5
2019-04-21T04:42:59.452Z,35.5
2019-04-21T04:44:11.640Z,35.4
2019-04-21T04:45:23.083Z,35.5
2019-04-21T04:46:36.034Z,35.5
2019-04-21T04:47:48.214Z,35.4
2019-04-21T04:49:00.413Z,35.4
2019-04-21T04:51:24.799Z,35.3
2019-04-21T04:52:36.999Z,35.3
2019-04-21T04:53:49.186Z,35.3
2019-04-21T04:55:01.379Z,35.3
2019-04-21T04:56:13.573Z,35.4
2019-04-21T04:57:25.769Z,35.4
2019-04-21T04:58:37.959Z,35.4
2019-04-21T04:59:50.179Z,35.4
2019-04-21T05:01:02.349Z,35.3
2019-04-21T05:03:26.734Z,35.4
2019-04-21T05:04:38.929Z,35.3
2019-04-21T05:05:51.121Z,35.3
2019-04-21T05:07:03.331Z,35.3
2019-04-21T05:08:15.513Z,35.3
2019-04-21T05:09:27.699Z,35.3
2019-04-21T05:10:39.088Z,35.3
2019-04-21T05:11:52.090Z,35.3
2019-04-21T05:13:04.287Z,35.3
2019-04-21T05:16:40.864Z,35.2
2019-04-21T05:17:53.054Z,35.2
2019-04-21T05:19:05.242Z,35.3
2019-04-21T05:21:29.630Z,35.2
2019-04-21T05:22:41.083Z,35.2
2019-04-21T05:23:54.023Z,35.2
2019-04-21T05:25:06.219Z,35.2
2019-04-21T05:26:18.415Z,35.2
2019-04-21T05:27:30.608Z,35.2
2019-04-21T05:28:42.801Z,35.2
2019-04-21T05:29:54.991Z,35.2
2019-04-21T05:31:07.182Z,35.2
2019-04-21T05:32:19.381Z,35.2
2019-04-21T05:33:31.593Z,35.2
2019-04-21T05:35:55.095Z,35.1
2019-04-21T05:37:08.151Z,35.2
2019-04-21T05:38:20.353Z,35.1
2019-04-21T05:39:32.541Z,35.2
2019-04-21T05:40:44.733Z,35.1
2019-04-21T05:41:56.940Z,35.2
2019-04-21T05:43:09.124Z,35.1
2019-04-21T05:44:21.342Z,35.1
2019-04-21T05:45:33.505Z,35.1
2019-04-21T05:47:57.894Z,35.1
2019-04-21T05:49:10.084Z,35.1
2019-04-21T05:50:22.283Z,35.1
2019-04-21T05:51:34.474Z,35.1
2019-04-21T05:52:46.670Z,35.1
2019-04-21T05:53:58.870Z,35.1
2019-04-21T05:55:11.061Z,35.1
2019-04-21T05:56:23.249Z,35.1
2019-04-21T05:57:35.443Z,35.1
2019-04-21T05:58:47.643Z,35.1
2019-04-21T05:59:59.829Z,35.1
2019-04-21T06:01:12.026Z,35.1
2019-04-21T06:02:24.220Z,35.1
2019-04-21T06:03:36.419Z,35.1
2019-04-21T06:04:48.610Z,35.1
2019-04-21T06:06:00.801Z,35.1
2019-04-21T06:07:12.999Z,35
2019-04-21T06:08:25.187Z,35.1
2019-04-21T06:09:37.381Z,35
2019-04-21T06:12:01.772Z,35
2019-04-21T06:13:13.965Z,35
2019-04-21T06:14:26.164Z,35
2019-04-21T06:15:38.358Z,35
2019-04-21T06:16:50.548Z,35
2019-04-21T06:18:02.740Z,35
2019-04-21T06:19:14.931Z,35
2019-04-21T06:20:27.127Z,35
2019-04-21T06:21:39.315Z,35
2019-04-21T06:22:51.520Z,35
2019-04-21T06:24:03.000Z,35
2019-04-21T06:25:15.896Z,35
2019-04-21T06:27:40.329Z,35
2019-04-21T06:28:52.482Z,35
2019-04-21T06:30:04.000Z,35
2019-04-21T06:31:16.868Z,35
2019-04-21T06:32:29.065Z,35
2019-04-21T06:33:41.256Z,35
2019-04-21T06:34:53.447Z,35
2019-04-21T06:36:05.643Z,35
2019-04-21T06:38:30.036Z,35
2019-04-21T06:39:42.219Z,35
2019-04-21T06:40:54.420Z,35
2019-04-21T06:43:18.806Z,35
2019-04-21T06:44:30.992Z,35
2019-04-21T06:45:43.190Z,35
2019-04-21T06:46:55.385Z,35
2019-04-21T06:48:07.572Z,35
2019-04-21T06:49:19.000Z,35
2019-04-21T06:50:31.096Z,35
2019-04-21T06:51:44.001Z,35
2019-04-21T06:52:56.373Z,35
2019-04-21T06:54:08.544Z,35
2019-04-21T06:55:20.754Z,35
2019-04-21T06:56:32.930Z,35
2019-04-21T06:57:45.012Z,35
2019-04-21T06:58:57.318Z,35
2019-04-21T07:00:09.526Z,35
2019-04-21T07:01:21.710Z,35
2019-04-21T07:02:33.916Z,35
2019-04-21T07:03:46.100Z,35
2019-04-21T07:04:58.286Z,35
2019-04-21T07:06:10.501Z,35
2019-04-21T07:07:22.682Z,35
2019-04-21T07:08:34.892Z,35
2019-04-21T07:09:47.063Z,35
2019-04-21T07:10:59.255Z,35
2019-04-21T07:12:11.576Z,35
2019-04-21T07:13:23.643Z,35
2019-04-21T07:14:35.843Z,35
2019-04-21T07:17:00.280Z,35
2019-04-21T07:18:12.422Z,35
2019-04-21T07:19:24.620Z,35
2019-04-21T07:20:36.810Z,35
2019-04-21T07:21:49.001Z,35
2019-04-21T07:23:01.194Z,35
2019-04-21T07:24:13.392Z,35
2019-04-21T07:25:25.594Z,34.9
2019-04-21T07:26:37.799Z,35
2019-04-21T07:27:49.972Z,35
2019-04-21T07:29:02.168Z,35
2019-04-21T07:30:14.440Z,35
2019-04-21T07:31:26.555Z,35
2019-04-21T07:32:38.745Z,35
2019-04-21T07:33:50.940Z,35
2019-04-21T07:35:03.136Z,35
2019-04-21T07:36:15.328Z,35
2019-04-21T07:37:27.525Z,35
2019-04-21T07:38:39.709Z,35
2019-04-21T07:39:51.909Z,35
2019-04-21T07:41:04.102Z,35
2019-04-21T07:42:16.290Z,35
2019-04-21T07:43:28.500Z,34.9
2019-04-21T07:44:40.678Z,35
2019-04-21T07:45:52.872Z,34.9
2019-04-21T07:47:05.071Z,34.9
2019-04-21T07:48:17.261Z,34.9
2019-04-21T07:49:29.454Z,34.9
2019-04-21T07:50:41.658Z,34.9
2019-04-21T07:51:53.843Z,34.9
2019-04-21T07:53:06.036Z,34.9
2019-04-21T07:54:18.251Z,34.9
2019-04-21T07:55:30.423Z,34.9
2019-04-21T07:56:42.655Z,34.9
2019-04-21T07:57:54.818Z,34.9
2019-04-21T07:59:07.013Z,34.9
2019-04-21T08:00:19.201Z,34.9
2019-04-21T08:01:31.395Z,34.9
2019-04-21T08:02:43.585Z,34.9
2019-04-21T08:03:55.777Z,34.9
2019-04-21T08:05:07.975Z,34.9
2019-04-21T08:06:20.163Z,34.9
2019-04-21T08:07:32.361Z,34.9
2019-04-21T08:08:44.570Z,34.9
2019-04-21T08:09:56.744Z,34.9
2019-04-21T08:11:08.009Z,34.9
2019-04-21T08:12:21.001Z,34.9
2019-04-21T08:13:33.330Z,34.9
2019-04-21T08:14:45.523Z,34.9
2019-04-21T08:15:57.711Z,34.9
2019-04-21T08:17:09.912Z,34.8
2019-04-21T08:18:22.106Z,34.9
2019-04-21T08:19:34.296Z,34.8
2019-04-21T08:20:46.489Z,34.8
2019-04-21T08:21:58.686Z,34.9
2019-04-21T08:23:10.880Z,34.9
2019-04-21T08:24:23.072Z,34.9
2019-04-21T08:25:35.265Z,34.8
2019-04-21T08:27:59.658Z,34.9
2019-04-21T08:29:11.840Z,34.9
2019-04-21T08:31:36.241Z,34.9
2019-04-21T08:32:48.427Z,34.8
2019-04-21T08:34:00.620Z,34.9
2019-04-21T08:35:12.815Z,34.8
2019-04-21T08:36:25.001Z,34.8
2019-04-21T08:37:37.199Z,34.8
2019-04-21T08:38:49.039Z,34.8
2019-04-21T08:41:13.781Z,34.8
2019-04-21T08:42:25.979Z,34.8
2019-04-21T08:43:38.180Z,34.8
2019-04-21T08:44:50.435Z,34.8
2019-04-21T08:46:02.558Z,34.8
2019-04-21T08:47:14.803Z,34.8
2019-04-21T08:48:26.947Z,34.8
2019-04-21T08:49:39.135Z,34.8
2019-04-21T08:50:51.337Z,34.8
2019-04-21T08:52:03.532Z,34.8
2019-04-21T08:53:15.723Z,34.8
2019-04-21T08:54:27.913Z,34.8
2019-04-21T08:55:40.109Z,34.8
2019-04-21T08:56:52.302Z,34.7
2019-04-21T08:58:04.494Z,34.7
2019-04-21T08:59:16.068Z,34.7
2019-04-21T09:00:28.887Z,34.7
2019-04-21T09:01:41.007Z,34.7
2019-04-21T09:02:53.282Z,34.7
2019-04-21T09:04:05.492Z,34.7
2019-04-21T09:05:17.657Z,34.7
2019-04-21T09:06:29.846Z,34.7
2019-04-21T09:07:42.063Z,34.7
2019-04-21T09:08:54.241Z,34.7
2019-04-21T09:10:06.429Z,34.7
2019-04-21T09:11:18.632Z,34.7
2019-04-21T09:12:30.817Z,34.7
2019-04-21T09:13:43.002Z,34.7
2019-04-21T09:14:55.212Z,34.8
2019-04-21T09:16:07.004Z,34.7
2019-04-21T09:17:19.059Z,34.7
2019-04-21T09:18:31.782Z,34.7
2019-04-21T09:19:43.978Z,34.7
2019-04-21T09:20:56.016Z,34.7
2019-04-21T09:22:08.369Z,34.7
2019-04-21T09:23:20.569Z,34.7
2019-04-21T09:24:32.760Z,34.7
2019-04-21T09:28:09.332Z,34.7
2019-04-21T09:29:21.537Z,34.7
2019-04-21T09:30:33.720Z,34.7
2019-04-21T09:31:45.092Z,34.7
2019-04-21T09:32:58.119Z,34.7
2019-04-21T09:34:10.320Z,34.7
2019-04-21T09:35:22.501Z,34.7
2019-04-21T09:36:34.694Z,34.7
2019-04-21T09:37:46.897Z,34.7
2019-04-21T09:40:11.269Z,34.7
2019-04-21T09:41:23.472Z,34.7
2019-04-21T09:42:35.662Z,34.6
2019-04-21T09:43:47.858Z,34.6
2019-04-21T09:45:00.046Z,34.7
2019-04-21T09:46:12.243Z,34.7
2019-04-21T09:47:24.449Z,34.7
2019-04-21T09:48:36.637Z,34.7
2019-04-21T09:49:48.081Z,34.6
2019-04-21T09:51:01.015Z,34.6
2019-04-21T09:52:13.209Z,34.6
2019-04-21T09:53:25.409Z,34.6
2019-04-21T09:54:37.597Z,34.6
2019-04-21T09:55:49.007Z,34.7
2019-04-21T09:57:01.988Z,34.7
2019-04-21T09:58:14.180Z,34.7
2019-04-21T09:59:26.372Z,34.6
2019-04-21T10:00:38.568Z,34.6
2019-04-21T10:01:51.129Z,34.6
2019-04-21T10:03:02.954Z,34.6
2019-04-21T10:04:15.145Z,34.6
2019-04-21T10:05:27.337Z,34.6
2019-04-21T10:06:39.534Z,34.6
2019-04-21T10:07:51.759Z,34.6
2019-04-21T10:09:03.917Z,34.6
2019-04-21T10:10:16.119Z,34.6
2019-04-21T10:11:28.304Z,34.6
2019-04-21T10:12:40.505Z,34.6
2019-04-21T10:13:52.713Z,34.6
2019-04-21T10:15:04.884Z,34.6
2019-04-21T10:16:17.084Z,34.6
2019-04-21T10:17:29.298Z,34.6
2019-04-21T10:19:53.659Z,34.6
2019-04-21T10:21:05.086Z,34.6
2019-04-21T10:22:18.044Z,34.6
2019-04-21T10:23:30.241Z,34.6
2019-04-21T10:24:42.438Z,34.6
2019-04-21T10:25:54.628Z,34.6
2019-04-21T10:27:06.083Z,34.6
2019-04-21T10:28:19.002Z,34.6
2019-04-21T10:29:31.021Z,34.6
2019-04-21T10:30:43.404Z,34.6
2019-04-21T10:31:55.600Z,34.6
2019-04-21T10:33:07.793Z,34.6
2019-04-21T10:34:19.987Z,34.6
2019-04-21T10:35:32.017Z,34.6
2019-04-21T10:36:44.371Z,34.6
2019-04-21T10:37:56.562Z,34.6
2019-04-21T10:40:20.951Z,34.6
2019-04-21T10:41:33.148Z,34.6
2019-04-21T10:42:45.345Z,34.6
2019-04-21T10:43:57.528Z,34.6
2019-04-21T10:45:09.729Z,34.6
2019-04-21T10:46:21.918Z,34.7
2019-04-21T10:47:34.111Z,34.6
2019-04-21T10:48:46.307Z,34.7
2019-04-21T10:49:58.499Z,34.6
2019-04-21T10:51:10.703Z,34.7
2019-04-21T10:52:22.893Z,34.6
2019-04-21T10:53:35.080Z,34.6
2019-04-21T10:54:47.272Z,34.6
2019-04-21T10:55:59.047Z,34.6
2019-04-21T10:57:11.663Z,34.6
2019-04-21T10:58:23.008Z,34.6
2019-04-21T10:59:36.152Z,34.6
2019-04-21T11:00:48.385Z,34.7
2019-04-21T11:02:00.438Z,34.7
2019-04-21T11:03:12.062Z,34.7
2019-04-21T11:04:24.824Z,34.6
2019-04-21T11:05:37.080Z,34.6
2019-04-21T11:06:49.216Z,34.6
2019-04-21T11:08:01.407Z,34.6
2019-04-21T11:09:13.596Z,34.6
2019-04-21T11:10:25.804Z,34.6
2019-04-21T11:11:37.984Z,34.7
2019-04-21T11:12:50.178Z,34.7
2019-04-21T11:15:14.005Z,34.6
2019-04-21T11:16:26.771Z,34.6
2019-04-21T11:17:38.978Z,34.6
2019-04-21T11:18:51.150Z,34.6
2019-04-21T11:20:03.360Z,34.6
2019-04-21T11:21:15.549Z,34.7
2019-04-21T11:23:39.921Z,34.6
2019-04-21T11:24:52.116Z,34.6
2019-04-21T11:26:04.350Z,34.7
2019-04-21T11:27:16.502Z,34.7
2019-04-21T11:28:28.705Z,34.6
2019-04-21T11:29:40.897Z,34.7
2019-04-21T11:30:53.009Z,34.7
2019-04-21T11:32:05.280Z,34.7
2019-04-21T11:33:17.478Z,34.7
2019-04-21T11:34:29.673Z,34.7
2019-04-21T11:35:41.865Z,34.7
2019-04-21T11:36:54.066Z,34.7
2019-04-21T11:39:18.455Z,34.7
2019-04-21T11:40:30.647Z,34.7
2019-04-21T11:41:42.848Z,34.7
2019-04-21T11:42:55.034Z,34.7
2019-04-21T11:44:07.236Z,34.7
2019-04-21T11:45:19.004Z,34.7
2019-04-21T11:46:31.624Z,34.7
2019-04-21T11:47:43.082Z,34.7
2019-04-21T11:48:56.011Z,34.7
2019-04-21T11:50:08.203Z,34.7
2019-04-21T11:51:20.396Z,34.6
2019-04-21T11:52:32.596Z,34.6
2019-04-21T11:54:56.981Z,34.6
2019-04-21T11:56:09.178Z,34.6
2019-04-21T11:57:21.380Z,34.6
2019-04-21T11:58:33.574Z,34.6
2019-04-21T11:59:45.763Z,34.6
2019-04-21T12:00:57.956Z,34.7
2019-04-21T12:02:10.162Z,34.7
2019-04-21T12:03:22.353Z,34.7
2019-04-21T12:04:34.555Z,34.7
2019-04-21T12:05:46.741Z,34.7
2019-04-21T12:06:58.936Z,34.6
2019-04-21T12:08:11.132Z,34.6
2019-04-21T12:09:23.333Z,34.6
2019-04-21T12:10:35.517Z,34.6
2019-04-21T12:11:47.720Z,34.6
2019-04-21T12:12:59.909Z,34.7
2019-04-21T12:14:12.103Z,34.7
2019-04-21T12:15:24.307Z,34.7
2019-04-21T12:16:36.492Z,34.7
2019-04-21T12:17:48.695Z,34.7
2019-04-21T12:19:00.895Z,34.7
2019-04-21T12:20:13.086Z,34.7
2019-04-21T12:21:25.002Z,34.7
2019-04-21T12:22:37.474Z,34.7
2019-04-21T12:23:49.674Z,34.7
2019-04-21T12:25:01.861Z,34.7
2019-04-21T12:26:14.067Z,34.7
2019-04-21T12:28:38.450Z,34.7
2019-04-21T12:29:50.646Z,34.7
2019-04-21T12:31:02.838Z,34.7
2019-04-21T12:32:15.036Z,34.7
2019-04-21T12:33:27.233Z,34.7
2019-04-21T12:34:39.422Z,34.7
2019-04-21T12:35:51.611Z,34.7
2019-04-21T12:37:03.818Z,34.7
2019-04-21T12:38:16.018Z,34.7
2019-04-21T12:39:28.283Z,34.7
2019-04-21T12:40:40.398Z,34.7
2019-04-21T12:41:52.591Z,34.7
2019-04-21T12:43:04.795Z,34.7
2019-04-21T12:44:16.982Z,34.7
2019-04-21T12:45:29.001Z,34.7
2019-04-21T12:46:41.366Z,34.7
2019-04-21T12:47:53.568Z,34.7
2019-04-21T12:49:05.762Z,34.7
2019-04-21T12:52:42.348Z,34.7
2019-04-21T12:53:54.543Z,34.7
2019-04-21T12:55:06.732Z,34.7
2019-04-21T12:56:18.935Z,34.6
2019-04-21T12:57:31.124Z,34.6
2019-04-21T12:58:43.000Z,34.6
2019-04-21T12:59:55.516Z,34.6
2019-04-21T13:01:07.718Z,34.6
2019-04-21T13:02:19.906Z,34.6
2019-04-21T13:03:32.100Z,34.6
2019-04-21T13:04:44.300Z,34.6
2019-04-21T13:05:56.528Z,34.6
2019-04-21T13:07:08.685Z,34.6
2019-04-21T13:08:20.887Z,34.6
2019-04-21T13:09:33.074Z,34.6
2019-04-21T13:10:45.271Z,34.6
2019-04-21T13:11:57.461Z,34.6
2019-04-21T13:13:09.680Z,34.6
2019-04-21T13:14:21.857Z,34.6
2019-04-21T13:16:46.247Z,34.5
2019-04-21T13:17:58.443Z,34.5
2019-04-21T13:19:10.640Z,34.5
2019-04-21T13:20:22.834Z,34.5
2019-04-21T13:21:35.035Z,34.5
2019-04-21T13:22:47.221Z,34.5
2019-04-21T13:23:59.419Z,34.4
2019-04-21T13:25:11.610Z,34.4
2019-04-21T13:26:23.080Z,34.4
2019-04-21T13:27:36.000Z,34.4
2019-04-21T13:28:48.198Z,34.4
2019-04-21T13:30:00.397Z,34.4
2019-04-21T13:31:12.583Z,34.3
2019-04-21T13:32:24.781Z,34.3
2019-04-21T13:33:36.981Z,34.3
2019-04-21T13:34:49.016Z,34.3
2019-04-21T13:36:01.365Z,34.2
2019-04-21T13:37:13.000Z,34.2
2019-04-21T13:38:25.754Z,34.2
2019-04-21T13:39:37.954Z,34.1
2019-04-21T13:40:50.014Z,34.1
2019-04-21T13:42:02.336Z,34.1
2019-04-21T13:43:14.535Z,34.1
2019-04-21T13:44:26.734Z,34.1
2019-04-21T13:45:38.009Z,34
2019-04-21T13:46:51.122Z,34
2019-04-21T13:48:03.343Z,34
2019-04-21T13:49:15.510Z,33.9
2019-04-21T13:50:27.714Z,33.9
2019-04-21T13:51:39.899Z,33.8
2019-04-21T13:52:52.105Z,33.8
2019-04-21T13:54:04.287Z,33.8
2019-04-21T13:55:16.492Z,33.7
2019-04-21T13:56:28.679Z,33.5
2019-04-21T13:57:40.882Z,33.3
2019-04-21T13:58:53.071Z,33.2
2019-04-21T14:00:05.270Z,32.9
2019-04-21T14:01:17.459Z,32.6
2019-04-21T14:02:29.658Z,32.1
2019-04-21T14:03:41.851Z,31
2019-04-21T14:04:54.040Z,30
2019-04-21T14:06:06.237Z,28.9
2019-04-21T14:07:18.437Z,27.7
2019-04-21T14:08:30.632Z,26.8
2019-04-21T14:09:42.828Z,25.9
2019-04-21T14:10:55.018Z,25.3
2019-04-21T14:12:07.021Z,24.9
2019-04-21T14:13:19.410Z,24.5
2019-04-21T14:14:31.600Z,24.4
2019-04-21T14:16:56.004Z,24.8
2019-04-21T14:18:08.186Z,25.2
2019-04-21T14:19:20.038Z,25.8
2019-04-21T14:20:32.058Z,26.4
2019-04-21T14:21:44.772Z,26.9
2019-04-21T14:22:56.974Z,27.3
2019-04-21T14:25:21.365Z,28.1
2019-04-21T14:26:33.560Z,28.4
2019-04-21T14:28:57.953Z,28.8
2019-04-21T14:30:10.136Z,29.1
2019-04-21T14:31:22.338Z,29.4
2019-04-21T14:32:34.052Z,29.6
2019-04-21T14:33:46.072Z,29.7
2019-04-21T14:34:58.922Z,29.9
2019-04-21T14:36:11.119Z,30
2019-04-21T14:38:35.513Z,30.2
2019-04-21T14:39:47.703Z,30.3
2019-04-21T14:40:59.090Z,30.4
2019-04-21T14:42:12.095Z,30.5
2019-04-21T14:43:24.028Z,30.5
2019-04-21T14:44:36.486Z,30.6
2019-04-21T14:45:48.679Z,30.6
2019-04-21T14:47:00.877Z,30.7
2019-04-21T14:48:13.071Z,30.7
2019-04-21T14:49:25.283Z,30.7
2019-04-21T14:50:37.468Z,30.8
2019-04-21T14:51:49.655Z,30.8
2019-04-21T14:53:01.865Z,30.8
2019-04-21T14:54:14.044Z,30.7
2019-04-21T14:55:26.024Z,30.7
2019-04-21T14:56:38.449Z,30.6
2019-04-21T14:57:50.631Z,30.6
2019-04-21T14:59:02.828Z,30.5
2019-04-21T15:00:15.020Z,30.4
2019-04-21T15:01:27.217Z,30.4
2019-04-21T15:02:39.415Z,30.2
2019-04-21T15:05:03.797Z,30
2019-04-21T15:06:16.000Z,30
2019-04-21T15:07:28.195Z,29.8
2019-04-21T15:08:40.394Z,29.7
2019-04-21T15:09:52.582Z,29.6
2019-04-21T15:11:04.780Z,29.4
2019-04-21T15:12:16.976Z,29.3
2019-04-21T15:13:29.016Z,29.1
2019-04-21T15:14:41.364Z,29
2019-04-21T15:15:53.554Z,28.8
2019-04-21T15:17:05.752Z,28.5
2019-04-21T15:18:17.009Z,28
2019-04-21T15:19:30.149Z,27.4
2019-04-21T15:20:42.337Z,26.8
2019-04-21T15:21:54.546Z,25.9
2019-04-21T15:23:06.730Z,25.3
2019-04-21T15:24:18.928Z,24.7
2019-04-21T15:25:31.115Z,24.3
2019-04-21T15:26:43.030Z,24.1
2019-04-21T15:27:55.540Z,24.1
2019-04-21T15:29:07.707Z,24.2
2019-04-21T15:30:19.896Z,24.4
2019-04-21T15:31:32.091Z,24.6
2019-04-21T15:33:56.484Z,25.3
2019-04-21T15:35:08.682Z,25.6
2019-04-21T15:36:20.879Z,25.9
2019-04-21T15:37:33.085Z,26.3
2019-04-21T15:38:45.812Z,26.5
2019-04-21T15:39:57.460Z,26.8
2019-04-21T15:41:09.655Z,27
2019-04-21T15:42:21.857Z,27.2
2019-04-21T15:43:34.047Z,27.4
2019-04-21T15:44:46.250Z,27.6
2019-04-21T15:47:10.630Z,27.9
2019-04-21T15:48:22.823Z,28.1
2019-04-21T15:49:35.027Z,28.2
2019-04-21T15:50:47.219Z,28.1
2019-04-21T15:51:59.408Z,28
2019-04-21T15:53:11.614Z,27.9
2019-04-21T15:54:23.800Z,27.6
2019-04-21T15:55:36.001Z,27.2
2019-04-21T15:56:48.192Z,26.7
2019-04-21T15:58:00.391Z,26.2
2019-04-21T15:59:12.599Z,25.7
2019-04-21T16:00:24.782Z,25.4
2019-04-21T16:01:36.979Z,25.2
2019-04-21T16:02:49.200Z,25.1
2019-04-21T16:04:01.383Z,25.2
2019-04-21T16:05:13.056Z,25.3
2019-04-21T16:06:25.075Z,25.5
2019-04-21T16:07:37.095Z,25.7
2019-04-21T16:08:50.155Z,26
2019-04-21T16:10:02.345Z,26.1
2019-04-21T16:11:14.054Z,26.4
2019-04-21T16:12:26.738Z,26.6
2019-04-21T16:13:38.935Z,26.8
2019-04-21T16:14:51.129Z,27.1
2019-04-21T16:16:03.328Z,27.2
2019-04-21T16:17:15.519Z,27.3
2019-04-21T16:18:27.723Z,27.3
2019-04-21T16:19:39.090Z,27.4
2019-04-21T16:20:52.105Z,27.3
2019-04-21T16:22:04.299Z,26.9
2019-04-21T16:23:16.500Z,26.7
2019-04-21T16:24:28.691Z,26.3
2019-04-21T16:25:40.908Z,25.8
2019-04-21T16:26:53.091Z,25.4
2019-04-21T16:28:05.283Z,25
2019-04-21T16:29:17.636Z,24.7
2019-04-21T16:30:29.671Z,24.5
2019-04-21T16:31:41.872Z,24.3
2019-04-21T16:32:54.070Z,24.1
2019-04-21T16:34:06.264Z,23.9
2019-04-21T16:35:18.449Z,23.9
2019-04-21T16:36:30.650Z,23.6
2019-04-21T16:37:42.851Z,23.6
2019-04-21T16:40:07.242Z,23.6
2019-04-21T16:41:19.431Z,23.9
2019-04-21T16:42:31.634Z,24.1
2019-04-21T16:43:43.830Z,24.3
2019-04-21T16:44:56.000Z,24.6
2019-04-21T16:46:08.215Z,24.9
2019-04-21T16:47:20.410Z,25.2
2019-04-21T16:48:32.605Z,25.5
2019-04-21T16:49:44.888Z,25.8
2019-04-21T16:50:56.999Z,26.2
2019-04-21T16:53:21.387Z,26.9
2019-04-21T16:54:33.586Z,27.2
2019-04-21T16:55:45.777Z,27.5
2019-04-21T16:56:57.977Z,27.8
2019-04-21T16:58:10.017Z,28
2019-04-21T16:59:22.369Z,28.2
2019-04-21T17:00:34.567Z,28.4
2019-04-21T17:01:46.076Z,28.7
2019-04-21T17:02:58.984Z,28.9
2019-04-21T17:05:23.351Z,29.1
2019-04-21T17:06:35.542Z,29.2
2019-04-21T17:07:47.739Z,29.4
2019-04-21T17:08:59.938Z,29.5
2019-04-21T17:10:12.130Z,29.6